Lister — ZDHW6 — position and weather

sailwx.info

Track history (hours):
 
Tides and Currents Weather Stations Pressure Air Temp Water Temp Dewpoint Dewpoint Depression Visibility Wind Speed Wind Dir Waves Ship Positions

Lister

Last reported at 2015-Aug-28 07:33 UTC. Time now 2015-Aug-28 07:37 UTC.
Position N 56°01' E 012°42'.

Length 89 m; draft 5.1 m.

Type: Ship. MMSI: 236381000.

Date/timePositionNaut miles runAvg speedWind from/ knotsBaromVisibWave heightAir tempDewpointWater temp
2015-Aug-28 07:33N 56°01' E 012°42'0 0.0
2015-Aug-28 06:33N 56°01' E 012°42'0 0.0
2015-Aug-28 05:33N 56°01' E 012°42'0 0.0
2015-Aug-28 04:33N 56°01' E 012°42'0 0.0
2015-Aug-28 03:33N 56°01' E 012°42'0 0.0
2015-Aug-28 02:33N 56°01' E 012°42'0 0.0
2015-Aug-28 01:33N 56°01' E 012°42'0 0.0
2015-Aug-28 00:33N 56°01' E 012°42'0 0.0
2015-Aug-27 23:33N 56°01' E 012°42'0 0.0
2015-Aug-27 22:33N 56°01' E 012°42'0 0.0
2015-Aug-27 21:33N 56°01' E 012°42'0 0.0
2015-Aug-27 20:33N 56°01' E 012°42'0 0.0
2015-Aug-27 19:33N 56°01' E 012°42'0 0.0
2015-Aug-27 18:33N 56°01' E 012°42'5 4.9
2015-Aug-27 17:33N 55°57' E 012°44'1111.3
2015-Aug-27 16:33N 55°45' E 012°42'1110.7
2015-Aug-27 15:33N 55°35' E 012°42'1110.9
2015-Aug-27 14:33N 55°24' E 012°42'10 9.7
2015-Aug-27 13:33N 55°16' E 012°52'1111.4
2015-Aug-27 12:33N 55°15' E 013°12'1211.7
2015-Aug-27 11:33N 55°14' E 013°32'1211.5
2015-Aug-27 10:33N 55°14' E 013°52'1111.2
2015-Aug-27 09:33N 55°14' E 014°12'1010.0
2015-Aug-27 08:34N 55°21' E 014°25'1010.4
2015-Aug-27 07:33N 55°28' E 014°38'1211.5
2015-Aug-27 06:33N 55°33' E 014°56'1111.5
2015-Aug-27 05:34N 55°39' E 015°14'1111.4
2015-Aug-27 04:33N 55°45' E 015°31'1211.6
2015-Aug-27 03:33N 55°51' E 015°49'1211.7
2015-Aug-27 02:33N 55°57' E 016°07'1311.4
2015-Aug-27 01:24N 56°04' E 016°27'2511.2
2015-Aug-26 23:08N 56°23' E 016°55'811.7
2015-Aug-26 22:28N 56°31' E 017°01'3411.1
2015-Aug-26 19:27N 57°01' E 017°28'9 9.9
2015-Aug-26 18:33N 57°07' E 017°39'10 9.3
2015-Aug-26 17:29N 57°15' E 017°51'10 9.9
2015-Aug-26 16:27N 57°22' E 018°06'128 3.3
2015-Aug-25 01:31N 56°10' E 014°52'0 0.0
2015-Aug-24 21:31N 56°10' E 014°52'0 0.2
2015-Aug-24 19:33N 56°09' E 014°52'1010.1
2015-Aug-24 18:32N 56°04' E 015°08'1211.9
2015-Aug-24 17:33N 56°02' E 015°29'1212.0
2015-Aug-24 16:33N 55°59' E 015°49'1212.0
2015-Aug-24 15:34N 56°02' E 016°10'1211.8
2015-Aug-24 14:34N 56°05' E 016°31'1111.1
2015-Aug-24 13:33N 56°13' E 016°45'1111.3
2015-Aug-24 12:33N 56°23' E 016°51'1111.5
2015-Aug-24 11:34N 56°34' E 016°59'1211.5
2015-Aug-24 10:33N 56°45' E 017°06'1211.7
2015-Aug-24 09:32N 56°56' E 017°14'1111.5
2015-Aug-24 08:34N 57°07' E 017°21'1111.4
2015-Aug-24 07:33N 57°17' E 017°29'1111.3
2015-Aug-24 06:33N 57°27' E 017°40'1111.3
2015-Aug-24 05:33N 57°33' E 017°57'1111.2
2015-Aug-24 04:32N 57°38' E 018°17'0 0.0
2015-Aug-23 23:11N 57°38' E 018°17'0 0.0
2015-Aug-23 21:23N 57°38' E 018°17'0 0.0
2015-Aug-23 20:26N 57°38' E 018°17'0 0.0
2015-Aug-23 06:11N 57°38' E 018°17'0 0.0
2015-Aug-23 02:11N 57°38' E 018°17'0 0.0
2015-Aug-23 01:11N 57°38' E 018°17'0 0.0
2015-Aug-23 00:29N 57°38' E 018°17'0 0.0
2015-Aug-22 16:11N 57°38' E 018°17'4 5.7
2015-Aug-22 15:33N 57°37' E 018°11'9 9.3
2015-Aug-22 14:33N 57°31' E 017°57'10 9.6
2015-Aug-22 13:33N 57°23' E 017°47'1010.2
2015-Aug-22 12:33N 57°14' E 017°40'1010.4
2015-Aug-22 11:33N 57°05' E 017°31'10 9.6
2015-Aug-22 10:33N 56°56' E 017°25'10 9.8
2015-Aug-22 09:33N 56°47' E 017°19'10 9.9
2015-Aug-22 08:33N 56°37' E 017°12'10 9.8
2015-Aug-22 07:33N 56°28' E 017°05'10 9.6
2015-Aug-22 06:33N 56°19' E 016°58'1010.0
2015-Aug-22 05:33N 56°10' E 016°51'9 9.4
2015-Aug-22 04:33N 56°03' E 016°41'10 9.5
2015-Aug-22 03:33N 56°01' E 016°24'10 9.7
2015-Aug-22 02:33N 55°60' E 016°07'9 9.4
2015-Aug-22 01:33N 55°59' E 015°50'10 9.5
2015-Aug-22 00:33N 56°01' E 015°34'10 9.6
2015-Aug-21 23:33N 56°03' E 015°17'10 9.5
2015-Aug-21 22:33N 56°06' E 015°00'6 5.8
2015-Aug-21 21:28N 56°10' E 014°52'0 0.0
2015-Aug-21 20:31N 56°10' E 014°52'0 0.0
2015-Aug-21 19:19N 56°10' E 014°52'0 0.0
2015-Aug-21 17:25N 56°10' E 014°52'0 0.0
2015-Aug-21 16:31N 56°10' E 014°52'0 0.0
2015-Aug-21 15:25N 56°10' E 014°52'0 0.0
2015-Aug-21 14:31N 56°10' E 014°52'0 0.0
2015-Aug-21 13:19N 56°10' E 014°52'0 0.0
2015-Aug-20 23:13N 56°10' E 014°52'0 0.0
2015-Aug-20 19:31N 56°10' E 014°52'0 0.0
2015-Aug-20 18:25N 56°10' E 014°52'0 0.0
2015-Aug-20 17:28N 56°10' E 014°52'0 0.5
2015-Aug-20 16:33N 56°09' E 014°52'1010.3
2015-Aug-20 15:33N 56°05' E 015°08'1211.7
2015-Aug-20 14:33N 56°02' E 015°29'1212.0
2015-Aug-20 13:33N 55°59' E 015°50'1212.0
2015-Aug-20 12:33N 56°02' E 016°11'1212.0
2015-Aug-20 11:34N 56°05' E 016°31'1111.3
2015-Aug-20 10:33N 56°13' E 016°46'1211.7
2015-Aug-20 09:33N 56°23' E 016°56'1211.8
2015-Aug-20 08:33N 56°33' E 017°07'1211.7
2015-Aug-20 07:33N 56°44' E 017°17'1211.8
2015-Aug-20 06:33N 56°54' E 017°28'1211.8
2015-Aug-20 05:33N 57°04' E 017°40'1111.4
2015-Aug-20 04:33N 57°13' E 017°51'1111.2
2015-Aug-20 03:33N 57°21' E 018°05'4 3.7
2015-Aug-20 02:32N 57°23' E 018°11'0 0.0
2015-Aug-20 01:32N 57°23' E 018°11'0 0.0
2015-Aug-20 00:32N 57°23' E 018°11'0 0.0
2015-Aug-19 23:32N 57°23' E 018°11'0 0.0
2015-Aug-19 21:32N 57°23' E 018°11'0 0.0
2015-Aug-19 15:20N 57°23' E 018°11'18 3.0
2015-Aug-19 09:29N 57°17' E 017°41'1211.8
2015-Aug-19 08:27N 57°06' E 017°32'1211.6
2015-Aug-19 07:28N 56°56' E 017°24'2311.6
2015-Aug-19 05:28N 56°34' E 017°09'1011.5
2015-Aug-19 04:33N 56°24' E 017°02'1211.5
2015-Aug-19 03:33N 56°13' E 016°55'2010.0
2015-Aug-19 01:31N 56°01' E 016°27'1010.1
2015-Aug-19 00:32N 55°60' E 016°09'9 9.2
2015-Aug-18 23:33N 55°59' E 015°53'9 9.2
2015-Aug-18 22:33N 56°01' E 015°37'9 9.1
2015-Aug-18 21:33N 56°03' E 015°21'10 9.7
2015-Aug-18 20:33N 56°05' E 015°04'  
Track history (hours):
 
Tides and Currents Weather Stations Pressure Air Temp Water Temp Dewpoint Dewpoint Depression Visibility Wind Speed Wind Dir Waves Ship Positions

Lister

Last reported at 2015-Aug-28 07:33 UTC. Time now 2015-Aug-28 07:37 UTC.
Position N 56°01' E 012°42'.

Length 89 m; draft 5.1 m.

Type: Ship. MMSI: 236381000.

Date/timePositionNaut miles runAvg speedWind from/ knotsBaromVisibWave heightAir tempDewpointWater temp
2015-Aug-28 07:33N 56°01' E 012°42'0 0.0
2015-Aug-28 06:33N 56°01' E 012°42'0 0.0
2015-Aug-28 05:33N 56°01' E 012°42'0 0.0
2015-Aug-28 04:33N 56°01' E 012°42'0 0.0
2015-Aug-28 03:33N 56°01' E 012°42'0 0.0
2015-Aug-28 02:33N 56°01' E 012°42'0 0.0
2015-Aug-28 01:33N 56°01' E 012°42'0 0.0
2015-Aug-28 00:33N 56°01' E 012°42'0 0.0
2015-Aug-27 23:33N 56°01' E 012°42'0 0.0
2015-Aug-27 22:33N 56°01' E 012°42'0 0.0
2015-Aug-27 21:33N 56°01' E 012°42'0 0.0
2015-Aug-27 20:33N 56°01' E 012°42'0 0.0
2015-Aug-27 19:33N 56°01' E 012°42'0 0.0
2015-Aug-27 18:33N 56°01' E 012°42'5 4.9
2015-Aug-27 17:33N 55°57' E 012°44'1111.3
2015-Aug-27 16:33N 55°45' E 012°42'1110.7
2015-Aug-27 15:33N 55°35' E 012°42'1110.9
2015-Aug-27 14:33N 55°24' E 012°42'10 9.7
2015-Aug-27 13:33N 55°16' E 012°52'1111.4
2015-Aug-27 12:33N 55°15' E 013°12'1211.7
2015-Aug-27 11:33N 55°14' E 013°32'1211.5
2015-Aug-27 10:33N 55°14' E 013°52'1111.2
2015-Aug-27 09:33N 55°14' E 014°12'1010.0
2015-Aug-27 08:34N 55°21' E 014°25'1010.4
2015-Aug-27 07:33N 55°28' E 014°38'1211.5
2015-Aug-27 06:33N 55°33' E 014°56'1111.5
2015-Aug-27 05:34N 55°39' E 015°14'1111.4
2015-Aug-27 04:33N 55°45' E 015°31'1211.6
2015-Aug-27 03:33N 55°51' E 015°49'1211.7
2015-Aug-27 02:33N 55°57' E 016°07'1311.4
2015-Aug-27 01:24N 56°04' E 016°27'2511.2
2015-Aug-26 23:08N 56°23' E 016°55'811.7
2015-Aug-26 22:28N 56°31' E 017°01'3411.1
2015-Aug-26 19:27N 57°01' E 017°28'9 9.9
2015-Aug-26 18:33N 57°07' E 017°39'10 9.3
2015-Aug-26 17:29N 57°15' E 017°51'10 9.9
2015-Aug-26 16:27N 57°22' E 018°06'128 3.3
2015-Aug-25 01:31N 56°10' E 014°52'0 0.0
2015-Aug-24 21:31N 56°10' E 014°52'0 0.2
2015-Aug-24 19:33N 56°09' E 014°52'1010.1
2015-Aug-24 18:32N 56°04' E 015°08'1211.9
2015-Aug-24 17:33N 56°02' E 015°29'1212.0
2015-Aug-24 16:33N 55°59' E 015°49'1212.0
2015-Aug-24 15:34N 56°02' E 016°10'1211.8
2015-Aug-24 14:34N 56°05' E 016°31'1111.1
2015-Aug-24 13:33N 56°13' E 016°45'1111.3
2015-Aug-24 12:33N 56°23' E 016°51'1111.5
2015-Aug-24 11:34N 56°34' E 016°59'1211.5
2015-Aug-24 10:33N 56°45' E 017°06'1211.7
2015-Aug-24 09:32N 56°56' E 017°14'1111.5
2015-Aug-24 08:34N 57°07' E 017°21'1111.4
2015-Aug-24 07:33N 57°17' E 017°29'1111.3
2015-Aug-24 06:33N 57°27' E 017°40'1111.3
2015-Aug-24 05:33N 57°33' E 017°57'1111.2
2015-Aug-24 04:32N 57°38' E 018°17'0 0.0
2015-Aug-23 23:11N 57°38' E 018°17'0 0.0
2015-Aug-23 21:23N 57°38' E 018°17'0 0.0
2015-Aug-23 20:26N 57°38' E 018°17'0 0.0
2015-Aug-23 06:11N 57°38' E 018°17'0 0.0
2015-Aug-23 02:11N 57°38' E 018°17'0 0.0
2015-Aug-23 01:11N 57°38' E 018°17'0 0.0
2015-Aug-23 00:29N 57°38' E 018°17'0 0.0
2015-Aug-22 16:11N 57°38' E 018°17'4 5.7
2015-Aug-22 15:33N 57°37' E 018°11'9 9.3
2015-Aug-22 14:33N 57°31' E 017°57'10 9.6
2015-Aug-22 13:33N 57°23' E 017°47'1010.2
2015-Aug-22 12:33N 57°14' E 017°40'1010.4
2015-Aug-22 11:33N 57°05' E 017°31'10 9.6
2015-Aug-22 10:33N 56°56' E 017°25'10 9.8
2015-Aug-22 09:33N 56°47' E 017°19'10 9.9
2015-Aug-22 08:33N 56°37' E 017°12'10 9.8
2015-Aug-22 07:33N 56°28' E 017°05'10 9.6
2015-Aug-22 06:33N 56°19' E 016°58'1010.0
2015-Aug-22 05:33N 56°10' E 016°51'9 9.4
2015-Aug-22 04:33N 56°03' E 016°41'10 9.5
2015-Aug-22 03:33N 56°01' E 016°24'10 9.7
2015-Aug-22 02:33N 55°60' E 016°07'9 9.4
2015-Aug-22 01:33N 55°59' E 015°50'10 9.5
2015-Aug-22 00:33N 56°01' E 015°34'10 9.6
2015-Aug-21 23:33N 56°03' E 015°17'10 9.5
2015-Aug-21 22:33N 56°06' E 015°00'6 5.8
2015-Aug-21 21:28N 56°10' E 014°52'0 0.0
2015-Aug-21 20:31N 56°10' E 014°52'0 0.0
2015-Aug-21 19:19N 56°10' E 014°52'0 0.0
2015-Aug-21 17:25N 56°10' E 014°52'0 0.0
2015-Aug-21 16:31N 56°10' E 014°52'0 0.0
2015-Aug-21 15:25N 56°10' E 014°52'0 0.0
2015-Aug-21 14:31N 56°10' E 014°52'0 0.0
2015-Aug-21 13:19N 56°10' E 014°52'0 0.0
2015-Aug-20 23:13N 56°10' E 014°52'0 0.0
2015-Aug-20 19:31N 56°10' E 014°52'0 0.0
2015-Aug-20 18:25N 56°10' E 014°52'0 0.0
2015-Aug-20 17:28N 56°10' E 014°52'0 0.5
2015-Aug-20 16:33N 56°09' E 014°52'1010.3
2015-Aug-20 15:33N 56°05' E 015°08'1211.7
2015-Aug-20 14:33N 56°02' E 015°29'1212.0
2015-Aug-20 13:33N 55°59' E 015°50'1212.0
2015-Aug-20 12:33N 56°02' E 016°11'1212.0
2015-Aug-20 11:34N 56°05' E 016°31'1111.3
2015-Aug-20 10:33N 56°13' E 016°46'1211.7
2015-Aug-20 09:33N 56°23' E 016°56'1211.8
2015-Aug-20 08:33N 56°33' E 017°07'1211.7
2015-Aug-20 07:33N 56°44' E 017°17'1211.8
2015-Aug-20 06:33N 56°54' E 017°28'1211.8
2015-Aug-20 05:33N 57°04' E 017°40'1111.4
2015-Aug-20 04:33N 57°13' E 017°51'1111.2
2015-Aug-20 03:33N 57°21' E 018°05'4 3.7
2015-Aug-20 02:32N 57°23' E 018°11'0 0.0
2015-Aug-20 01:32N 57°23' E 018°11'0 0.0
2015-Aug-20 00:32N 57°23' E 018°11'0 0.0
2015-Aug-19 23:32N 57°23' E 018°11'0 0.0
2015-Aug-19 21:32N 57°23' E 018°11'0 0.0
2015-Aug-19 15:20N 57°23' E 018°11'18 3.0
2015-Aug-19 09:29N 57°17' E 017°41'1211.8
2015-Aug-19 08:27N 57°06' E 017°32'1211.6
2015-Aug-19 07:28N 56°56' E 017°24'2311.6
2015-Aug-19 05:28N 56°34' E 017°09'1011.5
2015-Aug-19 04:33N 56°24' E 017°02'1211.5
2015-Aug-19 03:33N 56°13' E 016°55'2010.0
2015-Aug-19 01:31N 56°01' E 016°27'1010.1
2015-Aug-19 00:32N 55°60' E 016°09'9 9.2
2015-Aug-18 23:33N 55°59' E 015°53'9 9.2
2015-Aug-18 22:33N 56°01' E 015°37'9 9.1
2015-Aug-18 21:33N 56°03' E 015°21'10 9.7
2015-Aug-18 20:33N 56°05' E 015°04'  

Dump ship's entire track history